createdAt,value
2019-05-23T00:00:22.425Z,94.10
2019-05-23T00:02:52.097Z,94.00
2019-05-23T00:05:30.225Z,94.10
2019-05-23T00:07:58.658Z,94.10
2019-05-23T00:10:31.748Z,94.10
2019-05-23T00:13:00.926Z,94.00
2019-05-23T00:15:32.699Z,94.10
2019-05-23T00:18:01.513Z,94.20
2019-05-23T00:20:30.314Z,94.20
2019-05-23T00:22:58.498Z,94.30
2019-05-23T00:25:26.430Z,94.30
2019-05-23T00:27:55.426Z,94.30
2019-05-23T00:30:29.006Z,94.40
2019-05-23T00:32:57.148Z,94.40
2019-05-23T00:35:25.917Z,94.40
2019-05-23T00:37:54.283Z,94.40
2019-05-23T00:40:22.358Z,94.40
2019-05-23T00:42:50.004Z,94.50
2019-05-23T00:45:20.331Z,94.60
2019-05-23T00:47:47.653Z,94.70
2019-05-23T00:50:20.085Z,94.70
2019-05-23T00:52:49.699Z,94.70
2019-05-23T00:55:17.485Z,94.80
2019-05-23T00:57:44.910Z,94.80
2019-05-23T01:00:17.906Z,94.70
2019-05-23T01:02:45.766Z,94.60
2019-05-23T01:05:14.230Z,94.60
2019-05-23T01:07:42.590Z,94.50
2019-05-23T01:10:10.623Z,94.70
2019-05-23T01:12:37.949Z,94.60
2019-05-23T01:15:06.767Z,94.60
2019-05-23T01:17:35.981Z,94.60
2019-05-23T01:20:06.001Z,94.70
2019-05-23T01:22:33.369Z,94.80
2019-05-23T01:25:00.719Z,94.70
2019-05-23T01:27:28.154Z,94.70
2019-05-23T01:29:55.733Z,94.70
2019-05-23T01:32:28.832Z,94.80
2019-05-23T01:34:56.456Z,94.80
2019-05-23T01:37:23.670Z,94.80
2019-05-23T01:39:51.536Z,94.90
2019-05-23T01:42:19.934Z,94.90
2019-05-23T01:44:47.905Z,94.90
2019-05-23T01:47:17.568Z,94.90
2019-05-23T01:49:45.963Z,94.90
2019-05-23T01:52:13.427Z,95.00
2019-05-23T01:54:40.838Z,94.90
2019-05-23T01:57:09.240Z,95.00
2019-05-23T01:59:36.654Z,95.00
2019-05-23T02:02:04.298Z,95.00
2019-05-23T02:04:31.782Z,95.00
2019-05-23T02:06:59.629Z,95.00
2019-05-23T02:09:27.855Z,94.90
2019-05-23T02:11:55.568Z,94.90
2019-05-23T02:14:24.366Z,94.90
2019-05-23T02:16:52.051Z,95.00
2019-05-23T02:19:19.885Z,94.90
2019-05-23T02:21:48.458Z,95.00
2019-05-23T02:24:16.783Z,95.00
2019-05-23T02:26:44.475Z,95.10
2019-05-23T02:29:12.068Z,95.00
2019-05-23T02:31:40.538Z,95.00
2019-05-23T02:34:07.993Z,95.00
2019-05-23T02:36:35.714Z,94.90
2019-05-23T02:39:37.246Z,94.90
2019-05-23T02:42:23.125Z,94.90
2019-05-23T02:44:52.197Z,95.30
2019-05-23T02:47:38.308Z,95.00
2019-05-23T02:50:11.602Z,95.10
2019-05-23T02:52:45.719Z,95.00
2019-05-23T02:55:35.519Z,95.00
2019-05-23T02:58:35.812Z,95.00
2019-05-23T03:01:29.039Z,95.00
2019-05-23T03:04:03.020Z,95.10
2019-05-23T03:06:32.055Z,95.00
2019-05-23T03:09:00.736Z,95.10
2019-05-23T03:11:38.990Z,95.10
2019-05-23T03:14:09.246Z,95.00
2019-05-23T03:16:39.640Z,95.00
2019-05-23T03:19:13.451Z,95.40
2019-05-23T03:21:42.316Z,95.10
2019-05-23T03:24:13.263Z,95.00
2019-05-23T03:27:01.452Z,95.00
2019-05-23T03:29:33.213Z,95.00
2019-05-23T03:32:12.705Z,95.10
2019-05-23T03:34:42.533Z,95.20
2019-05-23T03:37:09.982Z,95.30
2019-05-23T03:39:39.088Z,95.30
2019-05-23T03:42:12.361Z,95.30
2019-05-23T03:44:42.951Z,95.30
2019-05-23T03:47:16.036Z,95.20
2019-05-23T03:49:45.033Z,95.20
2019-05-23T03:52:21.248Z,95.20
2019-05-23T03:54:51.929Z,95.30
2019-05-23T03:57:25.347Z,95.30
2019-05-23T03:59:50.039Z,95.40
2019-05-23T04:02:22.250Z,95.40
2019-05-23T04:04:53.566Z,95.40
2019-05-23T04:07:22.284Z,95.60
2019-05-23T04:09:50.274Z,95.40
2019-05-23T04:12:18.421Z,95.30
2019-05-23T04:14:46.918Z,95.50
2019-05-23T04:17:16.638Z,95.60
2019-05-23T04:19:45.954Z,95.70
2019-05-23T04:22:16.963Z,95.70
2019-05-23T04:24:44.876Z,95.80
2019-05-23T04:27:15.517Z,95.90
2019-05-23T04:29:45.925Z,95.90
2019-05-23T04:32:16.105Z,95.90
2019-05-23T04:34:46.022Z,96.00
2019-05-23T04:37:15.298Z,96.10
2019-05-23T04:39:44.542Z,96.10
2019-05-23T04:42:12.852Z,96.30
2019-05-23T04:44:44.169Z,96.40
2019-05-23T04:47:11.653Z,96.60
2019-05-23T04:49:41.610Z,96.70
2019-05-23T04:52:09.600Z,96.90
2019-05-23T04:54:38.340Z,97.00
2019-05-23T04:57:08.787Z,97.10
2019-05-23T04:59:37.258Z,97.30
2019-05-23T05:02:23.054Z,97.40
2019-05-23T05:04:36.579Z,97.50
2019-05-23T05:07:06.873Z,97.60
2019-05-23T05:09:35.314Z,97.70
2019-05-23T05:12:03.446Z,97.90
2019-05-23T05:14:32.052Z,98.00
2019-05-23T05:17:00.081Z,98.10
2019-05-23T05:19:29.399Z,98.30
2019-05-23T05:21:57.244Z,98.50
2019-05-23T05:24:24.996Z,98.60
2019-05-23T05:26:53.041Z,98.80
2019-05-23T05:29:21.572Z,99.00
2019-05-23T05:31:50.258Z,99.10
2019-05-23T05:34:19.050Z,99.30
2019-05-23T05:36:47.742Z,99.50
2019-05-23T05:39:15.899Z,99.60
2019-05-23T05:41:43.983Z,99.80
2019-05-23T05:44:12.603Z,99.90
2019-05-23T05:46:40.556Z,99.90
2019-05-23T05:49:10.127Z,99.90
2019-05-23T05:51:39.036Z,99.90
2019-05-23T05:54:08.515Z,99.90
2019-05-23T05:56:36.220Z,99.90
2019-05-23T05:59:04.285Z,99.90
2019-05-23T06:01:34.391Z,99.90
2019-05-23T06:04:02.540Z,99.90
2019-05-23T06:06:36.063Z,99.90
2019-05-23T06:09:13.226Z,99.90
2019-05-23T06:11:41.855Z,99.90
2019-05-23T06:14:09.695Z,99.90
2019-05-23T06:16:38.156Z,99.90
2019-05-23T06:19:06.351Z,99.90
2019-05-23T06:21:34.666Z,99.90
2019-05-23T06:24:02.918Z,99.90
2019-05-23T06:26:31.041Z,99.90
2019-05-23T06:28:58.667Z,99.90
2019-05-23T06:31:26.682Z,99.90
2019-05-23T06:33:55.920Z,99.90
2019-05-23T06:36:24.276Z,99.90
2019-05-23T06:38:54.714Z,99.90
2019-05-23T06:41:24.678Z,99.90
2019-05-23T06:43:52.225Z,99.90
2019-05-23T06:46:20.360Z,99.90
2019-05-23T06:48:48.540Z,99.90
2019-05-23T06:51:20.267Z,99.90
2019-05-23T06:53:48.969Z,99.90
2019-05-23T06:56:17.021Z,99.90
2019-05-23T06:58:44.653Z,99.90
2019-05-23T07:01:12.763Z,99.90
2019-05-23T07:03:43.651Z,99.90
2019-05-23T07:06:14.687Z,99.90
2019-05-23T07:08:43.974Z,99.90
2019-05-23T07:11:12.241Z,99.90
2019-05-23T07:13:40.596Z,99.90
2019-05-23T07:16:08.535Z,99.90
2019-05-23T07:18:37.313Z,99.90
2019-05-23T07:21:08.966Z,99.90
2019-05-23T07:23:37.251Z,99.90
2019-05-23T07:26:05.191Z,99.90
2019-05-23T07:28:33.601Z,99.90
2019-05-23T07:31:08.092Z,99.90
2019-05-23T07:33:36.255Z,99.90
2019-05-23T07:36:04.610Z,99.90
2019-05-23T07:38:33.795Z,99.90
2019-05-23T07:41:02.015Z,99.90
2019-05-23T07:43:32.534Z,99.90
2019-05-23T07:46:01.854Z,99.90
2019-05-23T07:48:31.578Z,99.90
2019-05-23T07:50:59.896Z,99.90
2019-05-23T07:53:56.163Z,99.90
2019-05-23T07:56:27.155Z,99.90
2019-05-23T07:58:56.704Z,99.90
2019-05-23T08:01:27.032Z,99.90
2019-05-23T08:03:56.412Z,99.90
2019-05-23T08:06:24.275Z,99.90
2019-05-23T08:08:52.055Z,99.90
2019-05-23T08:11:20.793Z,99.90
2019-05-23T08:13:49.197Z,99.90
2019-05-23T08:16:20.122Z,99.90
2019-05-23T08:18:48.827Z,99.90
2019-05-23T08:21:17.430Z,99.90
2019-05-23T08:23:45.690Z,99.90
2019-05-23T08:26:15.940Z,99.90
2019-05-23T08:29:11.480Z,99.90
2019-05-23T08:31:13.719Z,99.90
2019-05-23T08:33:41.214Z,99.90
2019-05-23T08:36:09.952Z,99.80
2019-05-23T08:38:38.504Z,99.50
2019-05-23T08:41:06.290Z,98.90
2019-05-23T08:43:34.384Z,98.80
2019-05-23T08:46:02.401Z,98.70
2019-05-23T08:48:31.309Z,98.60
2019-05-23T08:50:59.555Z,98.60
2019-05-23T08:53:27.329Z,98.40
2019-05-23T08:55:55.380Z,98.20
2019-05-23T08:58:23.270Z,98.20
2019-05-23T09:00:51.662Z,98.10
2019-05-23T09:03:19.781Z,98.00
2019-05-23T09:05:49.777Z,97.90
2019-05-23T09:08:19.410Z,97.80
2019-05-23T09:10:47.498Z,97.60
2019-05-23T09:13:15.547Z,97.60
2019-05-23T09:15:44.149Z,97.60
2019-05-23T09:18:12.767Z,97.50
2019-05-23T09:20:40.502Z,97.30
2019-05-23T09:23:10.140Z,97.00
2019-05-23T09:25:38.742Z,96.70
2019-05-23T09:28:07.533Z,96.40
2019-05-23T09:30:35.728Z,96.10
2019-05-23T09:33:05.503Z,95.90
2019-05-23T09:35:33.921Z,95.90
2019-05-23T09:38:02.110Z,95.90
2019-05-23T09:40:30.669Z,95.90
2019-05-23T09:42:58.552Z,95.90
2019-05-23T09:45:26.713Z,95.80
2019-05-23T09:47:54.990Z,95.90
2019-05-23T09:50:23.913Z,95.60
2019-05-23T09:52:51.414Z,95.40
2019-05-23T09:55:19.618Z,95.40
2019-05-23T09:57:47.802Z,95.40
2019-05-23T10:00:18.371Z,95.30
2019-05-23T10:02:45.846Z,95.20
2019-05-23T10:05:14.486Z,95.00
2019-05-23T10:07:43.046Z,95.00
2019-05-23T10:10:13.374Z,94.90
2019-05-23T10:12:41.368Z,94.80
2019-05-23T10:15:15.561Z,94.80
2019-05-23T10:17:43.146Z,94.70
2019-05-23T10:20:10.945Z,94.20
2019-05-23T10:22:39.142Z,94.10
2019-05-23T10:25:07.031Z,94.00
2019-05-23T10:27:35.217Z,93.90
2019-05-23T10:30:04.021Z,93.60
2019-05-23T10:32:32.369Z,93.30
2019-05-23T10:34:59.999Z,93.20
2019-05-23T10:37:28.608Z,93.20
2019-05-23T10:39:56.266Z,93.30
2019-05-23T10:42:27.326Z,93.40
2019-05-23T10:44:55.005Z,93.40
2019-05-23T10:47:23.256Z,93.30
2019-05-23T10:49:51.800Z,93.30
2019-05-23T10:52:20.005Z,93.50
2019-05-23T10:54:48.168Z,93.30
2019-05-23T10:57:16.846Z,92.90
2019-05-23T10:59:44.433Z,92.80
2019-05-23T11:02:12.949Z,93.00
2019-05-23T11:04:41.626Z,93.00
2019-05-23T11:07:10.903Z,92.90
2019-05-23T11:09:39.187Z,92.90
2019-05-23T11:12:08.208Z,92.80
2019-05-23T11:14:39.024Z,92.60
2019-05-23T11:17:07.562Z,92.10
2019-05-23T11:19:35.430Z,91.50
2019-05-23T11:22:04.047Z,91.50
2019-05-23T11:24:33.143Z,91.20
2019-05-23T11:27:01.303Z,90.90
2019-05-23T11:29:29.407Z,91.00
2019-05-23T11:31:58.111Z,91.00
2019-05-23T11:34:26.541Z,91.20
2019-05-23T11:36:55.017Z,91.50
2019-05-23T11:39:23.634Z,91.50
2019-05-23T11:41:52.192Z,91.30
2019-05-23T11:44:19.775Z,91.40
2019-05-23T11:46:49.340Z,91.50
2019-05-23T11:49:17.146Z,91.60
2019-05-23T11:51:45.499Z,91.60
2019-05-23T11:54:14.484Z,90.90
2019-05-23T11:56:42.688Z,90.60
2019-05-23T11:59:10.266Z,90.20
2019-05-23T12:01:57.674Z,89.90
2019-05-23T12:04:30.309Z,90.10
2019-05-23T12:07:08.843Z,90.00
2019-05-23T12:09:37.222Z,89.60
2019-05-23T12:12:06.430Z,87.60
2019-05-23T12:14:35.418Z,86.70
2019-05-23T12:17:04.358Z,87.60
2019-05-23T12:19:33.659Z,88.00
2019-05-23T12:22:01.282Z,86.80
2019-05-23T12:24:34.233Z,85.30
2019-05-23T12:27:00.065Z,85.10
2019-05-23T12:29:27.756Z,85.30
2019-05-23T12:31:56.544Z,85.20
2019-05-23T12:34:23.979Z,85.10
2019-05-23T12:37:14.222Z,85.60
2019-05-23T12:39:24.430Z,86.10
2019-05-23T12:41:52.613Z,86.30
2019-05-23T12:44:20.767Z,86.40
2019-05-23T12:46:48.497Z,85.50
2019-05-23T12:49:24.088Z,85.70
2019-05-23T12:51:52.309Z,85.30
2019-05-23T12:54:20.934Z,84.80
2019-05-23T12:56:49.412Z,84.90
2019-05-23T12:59:17.404Z,84.10
2019-05-23T13:01:46.936Z,83.30
2019-05-23T13:04:15.075Z,83.00
2019-05-23T13:06:43.823Z,82.10
2019-05-23T13:09:11.429Z,82.00
2019-05-23T13:11:39.276Z,82.10
2019-05-23T13:14:10.440Z,82.00
2019-05-23T13:16:38.410Z,81.70
2019-05-23T13:19:06.203Z,81.90
2019-05-23T13:21:34.281Z,82.40
2019-05-23T13:24:01.934Z,82.60
2019-05-23T13:26:29.767Z,82.90
2019-05-23T13:28:57.549Z,82.70
2019-05-23T13:31:25.693Z,82.70
2019-05-23T13:33:53.466Z,82.90
2019-05-23T13:36:21.790Z,83.10
2019-05-23T13:38:53.771Z,82.70
2019-05-23T13:41:21.566Z,82.90
2019-05-23T13:43:49.541Z,83.10
2019-05-23T13:46:17.615Z,81.90
2019-05-23T13:48:47.905Z,82.10
2019-05-23T13:51:15.860Z,81.70
2019-05-23T13:53:43.346Z,80.90
2019-05-23T13:56:11.083Z,80.20
2019-05-23T13:58:39.466Z,80.30
2019-05-23T14:01:09.514Z,80.70
2019-05-23T14:03:37.181Z,80.90
2019-05-23T14:06:11.795Z,81.20
2019-05-23T14:08:41.020Z,81.20
2019-05-23T14:11:10.244Z,80.80
2019-05-23T14:13:38.641Z,80.60
2019-05-23T14:16:06.581Z,80.20
2019-05-23T14:18:35.502Z,80.70
2019-05-23T14:21:03.579Z,80.70
2019-05-23T14:23:32.602Z,80.90
2019-05-23T14:26:00.714Z,80.60
2019-05-23T14:28:29.512Z,80.80
2019-05-23T14:31:06.928Z,80.30
2019-05-23T14:33:55.595Z,80.20
2019-05-23T14:36:41.523Z,80.50
2019-05-23T14:39:18.771Z,80.80
2019-05-23T14:41:53.322Z,80.40
2019-05-23T14:44:20.948Z,79.90
2019-05-23T14:47:02.469Z,80.20
2019-05-23T14:49:34.570Z,80.30
2019-05-23T14:52:12.232Z,80.10
2019-05-23T14:54:42.690Z,79.30
2019-05-23T14:57:10.759Z,79.30
2019-05-23T14:59:38.812Z,78.80
2019-05-23T15:02:12.616Z,78.60
2019-05-23T15:04:40.898Z,79.20
2019-05-23T15:07:08.953Z,79.00
2019-05-23T15:09:36.426Z,78.90
2019-05-23T15:12:05.441Z,78.00
2019-05-23T15:14:34.197Z,77.40
2019-05-23T15:17:03.730Z,75.90
2019-05-23T15:22:18.367Z,75.70
2019-05-23T15:24:46.691Z,75.90
2019-05-23T15:27:17.428Z,74.00
2019-05-23T15:29:45.561Z,73.70
2019-05-23T15:32:13.622Z,72.10
2019-05-23T15:34:41.405Z,71.80
2019-05-23T15:37:09.863Z,71.90
2019-05-23T15:39:38.237Z,71.70
2019-05-23T15:42:09.288Z,71.00
2019-05-23T15:44:37.678Z,70.30
2019-05-23T15:47:05.601Z,70.40
2019-05-23T15:49:36.796Z,68.20
2019-05-23T15:52:14.347Z,67.00
2019-05-23T15:54:49.963Z,66.20
2019-05-23T15:57:24.459Z,65.60
2019-05-23T16:00:08.991Z,65.60
2019-05-23T16:02:51.388Z,65.60
2019-05-23T16:05:20.788Z,63.20
2019-05-23T16:07:49.319Z,62.40
2019-05-23T16:10:17.404Z,61.40
2019-05-23T16:12:45.195Z,61.10
2019-05-23T16:15:13.226Z,62.00
2019-05-23T16:17:41.826Z,61.50
2019-05-23T16:20:09.802Z,60.90
2019-05-23T16:22:38.458Z,60.80
2019-05-23T16:25:06.590Z,60.30
2019-05-23T16:27:34.587Z,59.70
2019-05-23T16:30:06.593Z,59.50
2019-05-23T16:32:34.830Z,59.40
2019-05-23T16:35:02.313Z,59.60
2019-05-23T16:37:30.193Z,59.70
2019-05-23T16:39:58.097Z,59.70
2019-05-23T16:42:26.499Z,59.20
2019-05-23T16:45:04.123Z,59.10
2019-05-23T16:47:32.064Z,58.70
2019-05-23T16:50:00.343Z,58.60
2019-05-23T16:52:28.721Z,58.80
2019-05-23T16:54:57.618Z,58.80
2019-05-23T16:57:47.595Z,58.80
2019-05-23T17:00:34.302Z,58.80
2019-05-23T17:03:21.701Z,58.60
2019-05-23T17:05:57.405Z,59.00
2019-05-23T17:08:59.653Z,59.40
2019-05-23T17:11:36.164Z,59.40
2019-05-23T17:14:23.759Z,59.80
2019-05-23T17:17:05.521Z,60.00
2019-05-23T17:19:42.597Z,60.10
2019-05-23T17:22:38.828Z,59.20
2019-05-23T17:25:34.423Z,58.80
2019-05-23T17:28:12.343Z,58.90
2019-05-23T17:30:51.291Z,58.90
2019-05-23T17:33:19.081Z,59.40
2019-05-23T17:35:47.047Z,59.40
2019-05-23T17:38:15.097Z,59.40
2019-05-23T17:40:42.733Z,59.10
2019-05-23T17:43:11.104Z,59.00
2019-05-23T17:45:39.147Z,58.70
2019-05-23T17:48:07.812Z,58.70
2019-05-23T17:50:35.817Z,58.30
2019-05-23T17:53:03.979Z,57.30
2019-05-23T17:55:31.822Z,58.00
2019-05-23T17:58:00.577Z,56.30
2019-05-23T18:00:35.313Z,56.60
2019-05-23T18:03:06.063Z,56.60
2019-05-23T18:05:33.812Z,56.40
2019-05-23T18:08:01.397Z,56.30
2019-05-23T18:10:43.744Z,56.80
2019-05-23T18:13:01.416Z,57.20
2019-05-23T18:15:30.845Z,57.50
2019-05-23T18:17:59.600Z,57.70
2019-05-23T18:20:27.706Z,58.00
2019-05-23T18:22:56.159Z,58.30
2019-05-23T18:25:25.058Z,58.50
2019-05-23T18:27:54.135Z,58.80
2019-05-23T18:30:35.201Z,58.90
2019-05-23T18:33:04.233Z,59.00
2019-05-23T18:35:32.912Z,59.20
2019-05-23T18:38:00.712Z,59.20
2019-05-23T18:40:28.714Z,59.50
2019-05-23T18:42:57.365Z,59.60
2019-05-23T18:45:27.055Z,59.80
2019-05-23T18:47:55.194Z,59.30
2019-05-23T18:50:23.607Z,58.80
2019-05-23T18:52:51.972Z,58.90
2019-05-23T18:55:20.377Z,59.00
2019-05-23T18:57:49.394Z,59.20
2019-05-23T19:00:19.390Z,59.40
2019-05-23T19:02:47.221Z,59.10
2019-05-23T19:05:16.047Z,59.10
2019-05-23T19:07:44.607Z,59.30
2019-05-23T19:10:14.345Z,59.20
2019-05-23T19:12:42.430Z,59.40
2019-05-23T19:15:10.698Z,59.40
2019-05-23T19:17:38.623Z,59.50
2019-05-23T19:20:06.413Z,59.60
2019-05-23T19:22:36.402Z,59.70
2019-05-23T19:25:06.533Z,60.00
2019-05-23T19:27:35.299Z,59.90
2019-05-23T19:30:05.546Z,60.10
2019-05-23T19:32:34.661Z,60.40
2019-05-23T19:35:03.838Z,60.70
2019-05-23T19:37:33.996Z,60.90
2019-05-23T19:40:04.126Z,61.20
2019-05-23T19:42:33.240Z,61.60
2019-05-23T19:45:01.065Z,61.80
2019-05-23T19:47:30.524Z,62.20
2019-05-23T19:49:58.644Z,62.60
2019-05-23T19:52:27.319Z,63.30
2019-05-23T19:54:55.568Z,63.90
2019-05-23T19:57:25.948Z,64.40
2019-05-23T19:59:56.288Z,64.70
2019-05-23T20:02:43.893Z,65.30
2019-05-23T20:05:33.099Z,66.00
2019-05-23T20:08:02.107Z,67.00
2019-05-23T20:10:30.832Z,66.30
2019-05-23T20:12:59.096Z,66.30
2019-05-23T20:15:27.561Z,66.60
2019-05-23T20:17:56.766Z,66.80
2019-05-23T20:20:26.994Z,67.30
2019-05-23T20:22:55.347Z,67.40
2019-05-23T20:25:24.406Z,67.80
2019-05-23T20:27:53.138Z,68.00
2019-05-23T20:30:48.856Z,68.30
2019-05-23T20:33:17.503Z,68.50
2019-05-23T20:35:45.528Z,69.20
2019-05-23T20:38:13.483Z,69.30
2019-05-23T20:40:41.463Z,69.60
2019-05-23T20:43:09.183Z,70.10
2019-05-23T20:45:36.873Z,70.10
2019-05-23T20:48:04.756Z,70.50
2019-05-23T20:50:32.845Z,70.60
2019-05-23T20:53:01.068Z,70.80
2019-05-23T20:55:29.000Z,71.40
2019-05-23T20:57:56.709Z,71.60
2019-05-23T21:00:36.280Z,71.60
2019-05-23T21:03:04.353Z,71.90
2019-05-23T21:05:31.900Z,72.00
2019-05-23T21:07:59.368Z,72.30
2019-05-23T21:10:47.390Z,72.70
2019-05-23T21:13:15.789Z,73.00
2019-05-23T21:15:43.528Z,73.10
2019-05-23T21:18:11.322Z,74.10
2019-05-23T21:20:39.054Z,73.40
2019-05-23T21:23:06.715Z,73.80
2019-05-23T21:25:39.711Z,74.00
2019-05-23T21:28:08.084Z,74.30
2019-05-23T21:30:36.143Z,74.60
2019-05-23T21:33:04.347Z,74.90
2019-05-23T21:35:32.140Z,75.10
2019-05-23T21:37:59.657Z,75.40
2019-05-23T21:40:44.673Z,75.40
2019-05-23T21:43:12.931Z,75.30
2019-05-23T21:45:41.953Z,76.20
2019-05-23T21:48:09.569Z,75.50
2019-05-23T21:50:38.060Z,75.70
2019-05-23T21:53:06.209Z,75.80
2019-05-23T21:55:36.144Z,75.70
2019-05-23T21:58:04.163Z,75.90
2019-05-23T22:01:21.826Z,76.40
2019-05-23T22:04:00.238Z,76.80
2019-05-23T22:06:28.910Z,77.50
2019-05-23T22:08:56.899Z,77.50
2019-05-23T22:11:24.707Z,77.70
2019-05-23T22:13:52.340Z,77.90
2019-05-23T22:16:20.484Z,78.30
2019-05-23T22:18:47.786Z,77.80
2019-05-23T22:21:16.107Z,77.50
2019-05-23T22:23:43.752Z,77.10
2019-05-23T22:26:11.875Z,77.10
2019-05-23T22:28:39.615Z,77.40
2019-05-23T22:31:07.720Z,77.10
2019-05-23T22:33:37.348Z,77.10
2019-05-23T22:36:05.715Z,76.90
2019-05-23T22:38:33.710Z,77.20
2019-05-23T22:41:01.227Z,77.70
2019-05-23T22:43:29.785Z,78.00
2019-05-23T22:45:57.343Z,78.20
2019-05-23T22:48:24.917Z,78.40
2019-05-23T22:50:52.505Z,78.50
2019-05-23T22:53:19.977Z,79.00
2019-05-23T22:55:47.534Z,79.10
2019-05-23T22:58:15.051Z,79.00
2019-05-23T23:00:44.806Z,79.20
2019-05-23T23:03:12.835Z,79.10
2019-05-23T23:05:48.080Z,79.20
2019-05-23T23:08:16.710Z,79.10
2019-05-23T23:10:44.628Z,78.60
2019-05-23T23:13:12.682Z,78.60
2019-05-23T23:15:40.963Z,78.60
2019-05-23T23:18:08.451Z,78.10
2019-05-23T23:20:39.042Z,78.30
2019-05-23T23:23:06.656Z,78.30
2019-05-23T23:25:34.589Z,78.80
2019-05-23T23:28:01.998Z,78.90
2019-05-23T23:30:33.202Z,79.10
2019-05-23T23:33:00.559Z,79.30
2019-05-23T23:35:28.141Z,79.40
2019-05-23T23:37:55.579Z,79.50
2019-05-23T23:40:23.751Z,79.80
2019-05-23T23:42:51.604Z,79.80
2019-05-23T23:45:37.520Z,79.90
2019-05-23T23:48:42.018Z,80.10
2019-05-23T23:51:47.948Z,80.30
2019-05-23T23:54:33.556Z,80.20
2019-05-23T23:57:19.491Z,79.80
2019-05-23T23:59:46.904Z,79.80
